Time;durP1;ratioP1;P1;durP2;ratioP2;P2;SDS_P1;SDS_P2;PMS_P1;PMS_P2;Temp;Humidity;BMP_temperature;BMP_pressure;BME280_temperature;BME280_humidity;BME280_pressure;Samples;Min_cycle;Max_cycle;Signal;HPM_P1;HPM_P2
2022/04/26 03:37:39;;;;;;;23.63;19.40;;;11.20;66.60;;;;;;5135704;27;20403;-49
2022/04/26 03:40:06;;;;;;;25.20;19.42;;;11.10;66.50;;;;;;5117140;27;20020;-51
2022/04/26 03:42:34;;;;;;;26.98;19.38;;;11.10;66.50;;;;;;5134484;27;20054;-48
2022/04/26 03:44:59;;;;;;;24.00;19.42;;;11.10;66.60;;;;;;5135684;27;20027;-50
2022/04/26 03:47:25;;;;;;;26.02;20.98;;;11.10;66.60;;;;;;5134729;27;20496;-48
2022/04/26 03:49:51;;;;;;;27.92;20.10;;;11.10;66.60;;;;;;5135410;27;20022;-49
2022/04/26 03:52:17;;;;;;;27.75;20.63;;;11.10;66.60;;;;;;5134764;27;20375;-56
2022/04/26 03:54:43;;;;;;;24.50;19.35;;;11.10;66.60;;;;;;5134984;27;20031;-47
2022/04/26 03:57:09;;;;;;;25.00;20.40;;;11.10;66.50;;;;;;5135381;27;20026;-50
2022/04/26 03:59:34;;;;;;;27.92;21.85;;;11.10;66.50;;;;;;5134882;27;20460;-54
2022/04/26 04:02:00;;;;;;;27.10;20.88;;;11.20;66.40;;;;;;5135062;27;20471;-48
2022/04/26 04:04:26;;;;;;;27.73;21.27;;;11.20;66.30;;;;;;5115902;27;20024;-48
2022/04/26 04:06:52;;;;;;;26.90;21.00;;;11.20;66.20;;;;;;5134974;27;20083;-47
2022/04/26 04:09:18;;;;;;;27.63;21.67;;;11.20;66.10;;;;;;5134712;27;20046;-58
2022/04/26 04:11:44;;;;;;;25.77;20.42;;;11.20;66.10;;;;;;5099145;27;20488;-48
2022/04/26 04:14:09;;;;;;;27.70;21.13;;;11.30;66.20;;;;;;5135104;27;20027;-50
2022/04/26 04:16:35;;;;;;;25.88;20.70;;;11.30;66.10;;;;;;5134178;27;20026;-52
2022/04/26 04:19:19;;;;;;;25.13;21.23;;;11.40;66.10;;;;;;5115981;28;20027;-48
2022/04/26 04:21:46;;;;;;;27.42;21.10;;;11.40;65.80;;;;;;5134587;27;20032;-49
2022/04/26 04:24:12;;;;;;;27.27;20.17;;;11.40;65.80;;;;;;5134687;27;20024;-48
2022/04/26 04:26:38;;;;;;;26.77;20.42;;;11.50;65.70;;;;;;5115134;27;20464;-51
2022/04/26 04:29:05;;;;;;;25.10;19.70;;;11.50;65.60;;;;;;5134559;27;20023;-48
2022/04/26 04:31:32;;;;;;;27.98;21.35;;;11.50;65.50;;;;;;5115728;27;20490;-51
2022/04/26 04:33:58;;;;;;;24.42;20.40;;;11.50;65.40;;;;;;5134994;27;20031;-48
2022/04/26 04:36:23;;;;;;;25.35;19.48;;;11.50;65.40;;;;;;5115540;27;20087;-52
2022/04/26 04:38:49;;;;;;;26.17;20.73;;;11.50;65.20;;;;;;5134158;27;20027;-48
2022/04/26 04:41:15;;;;;;;27.25;20.45;;;11.50;65.10;;;;;;5115813;27;20464;-49
2022/04/26 04:43:41;;;;;;;28.88;20.92;;;11.60;65.10;;;;;;5133692;27;20030;-49
2022/04/26 04:46:06;;;;;;;26.42;20.25;;;11.50;64.90;;;;;;5115881;27;20035;-49
2022/04/26 04:48:32;;;;;;;26.83;20.33;;;11.60;65.00;;;;;;5133254;27;20058;-51
2022/04/26 04:50:58;;;;;;;27.00;20.88;;;11.60;64.90;;;;;;5134281;27;20034;-48
2022/04/26 04:53:23;;;;;;;25.60;20.77;;;11.60;64.90;;;;;;5133688;27;20476;-56
2022/04/26 04:55:49;;;;;;;24.23;19.98;;;11.70;64.60;;;;;;5115879;27;20039;-49
2022/04/26 04:58:15;;;;;;;25.63;20.67;;;11.80;64.20;;;;;;5115659;27;20071;-47
2022/04/26 05:00:41;;;;;;;28.48;20.75;;;11.90;64.00;;;;;;5114876;27;20155;-50
2022/04/26 05:03:07;;;;;;;26.50;20.98;;;12.00;63.80;;;;;;5133976;27;20026;-47
2022/04/26 05:05:32;;;;;;;25.02;19.58;;;12.10;64.50;;;;;;5133260;27;20148;-48
2022/04/26 05:07:58;;;;;;;22.83;19.75;;;12.20;63.50;;;;;;5133617;27;20464;-47
2022/04/26 05:10:25;;;;;;;23.98;19.25;;;12.30;62.90;;;;;;5114800;27;20030;-60
2022/04/26 05:12:51;;;;;;;24.98;19.25;;;12.50;62.40;;;;;;5133793;27;20030;-49
2022/04/26 05:15:17;;;;;;;32.65;19.77;;;12.60;62.10;;;;;;5133736;27;20102;-48
2022/04/26 05:17:43;;;;;;;24.33;19.38;;;12.70;61.60;;;;;;5132828;27;20482;-47
2022/04/26 05:20:09;;;;;;;29.60;19.55;;;12.90;61.20;;;;;;5132618;27;20080;-51
2022/04/26 05:24:53;;;;;;;25.40;18.20;;;13.00;61.00;;;;;;5096996;27;20033;-49
2022/04/26 05:25:21;;;;;;;21.52;17.35;;;13.10;60.70;;;;;;5133040;27;20503;-48
2022/04/26 05:27:49;;;;;;;23.25;17.73;;;13.20;60.40;;;;;;5114449;27;20027;-50
2022/04/26 05:30:15;;;;;;;24.27;18.98;;;13.30;60.20;;;;;;5113562;27;20050;-48
2022/04/26 05:32:40;;;;;;;23.20;19.13;;;13.40;60.00;;;;;;5113319;27;20464;-49
2022/04/26 05:35:10;;;;;;;34.03;18.83;;;13.60;59.50;;;;;;5131722;27;20034;-52
2022/04/26 05:37:36;;;;;;;29.05;18.27;;;13.70;58.60;;;;;;5131078;27;20027;-49
2022/04/26 05:40:09;;;;;;;29.15;18.13;;;13.90;58.50;;;;;;5132619;27;20026;-55
2022/04/26 05:42:40;;;;;;;23.77;18.05;;;14.20;58.20;;;;;;5131147;27;20039;-50
2022/04/26 05:45:07;;;;;;;29.55;18.60;;;14.40;57.40;;;;;;5132365;27;20035;-52
2022/04/26 05:47:33;;;;;;;33.72;18.52;;;14.50;57.10;;;;;;5095225;27;20486;-53
2022/04/26 05:49:58;;;;;;;27.08;17.48;;;14.50;57.00;;;;;;5113802;27;20020;-52
2022/04/26 05:52:24;;;;;;;24.85;17.40;;;14.60;56.50;;;;;;5131088;27;20011;-59
2022/04/26 05:54:51;;;;;;;22.73;16.80;;;14.70;56.60;;;;;;5113042;27;20031;-54
2022/04/26 05:57:18;;;;;;;22.27;17.88;;;14.70;56.00;;;;;;5113695;27;20496;-58
2022/04/26 05:59:43;;;;;;;23.38;17.98;;;14.70;55.90;;;;;;5113175;27;20506;-53
2022/04/26 06:02:09;;;;;;;23.95;17.25;;;14.80;55.80;;;;;;5132013;27;20039;-52
2022/04/26 06:04:37;;;;;;;22.90;18.52;;;14.80;55.80;;;;;;5131014;27;20110;-51
2022/04/26 06:07:03;;;;;;;25.05;18.85;;;14.90;55.60;;;;;;5114064;27;20026;-52
2022/04/26 06:09:29;;;;;;;29.75;18.73;;;14.90;55.30;;;;;;5131516;27;20372;-55
2022/04/26 06:11:55;;;;;;;20.08;16.70;;;14.90;55.30;;;;;;5097257;27;20055;-50
2022/04/26 06:14:21;;;;;;;25.40;17.48;;;14.90;55.20;;;;;;5113931;27;20038;-53
2022/04/26 06:16:47;;;;;;;22.65;17.60;;;15.00;55.10;;;;;;5113181;27;20187;-51
2022/04/26 06:19:14;;;;;;;25.50;17.00;;;15.00;55.10;;;;;;5113848;27;20439;-52
2022/04/26 06:21:40;;;;;;;22.77;17.17;;;15.00;55.00;;;;;;5113154;28;20027;-53
2022/04/26 06:24:06;;;;;;;39.97;21.63;;;15.10;54.90;;;;;;5131778;27;20380;-53
2022/04/26 06:26:32;;;;;;;26.77;17.75;;;15.10;54.80;;;;;;5130997;28;20480;-59
2022/04/26 06:28:57;;;;;;;28.38;17.25;;;15.00;54.80;;;;;;5132036;27;20491;-53
2022/04/26 06:31:23;;;;;;;22.73;17.17;;;14.90;55.00;;;;;;5131854;28;20438;-53
2022/04/26 06:33:48;;;;;;;24.40;17.40;;;14.90;55.20;;;;;;5113022;28;20019;-49
2022/04/26 06:36:14;;;;;;;20.73;17.55;;;15.00;55.30;;;;;;5131613;28;20035;-54
2022/04/26 06:38:40;;;;;;;25.15;18.38;;;15.10;55.50;;;;;;5130615;28;20022;-53
2022/04/26 06:41:06;;;;;;;20.95;17.50;;;15.20;55.10;;;;;;5131873;28;20015;-55
2022/04/26 06:43:33;;;;;;;22.23;18.00;;;15.00;55.10;;;;;;5133116;27;20058;-57
2022/04/26 06:46:00;;;;;;;27.08;19.02;;;14.90;55.60;;;;;;5136108;27;20023;-53
2022/04/26 06:48:26;;;;;;;28.70;20.30;;;14.90;56.00;;;;;;5135150;27;20026;-57
2022/04/26 06:50:55;;;;;;;25.08;17.65;;;14.90;56.20;;;;;;5136343;27;20019;-50
2022/04/26 06:53:21;;;;;;;20.10;17.75;;;15.00;56.20;;;;;;5137047;27;20020;-52
2022/04/26 06:55:47;;;;;;;24.08;17.80;;;15.10;56.10;;;;;;5133804;27;20031;-56
2022/04/26 06:58:12;;;;;;;20.40;16.52;;;15.20;56.00;;;;;;5132273;27;20023;-50
2022/04/26 07:00:38;;;;;;;24.73;15.60;;;15.20;55.80;;;;;;5131848;27;20114;-54
2022/04/26 07:03:05;;;;;;;20.85;14.30;;;15.20;55.90;;;;;;5132055;27;20499;-52
2022/04/26 07:05:30;;;;;;;18.40;15.77;;;15.30;55.90;;;;;;5114014;27;20034;-61
2022/04/26 07:07:56;;;;;;;22.80;15.40;;;15.30;56.00;;;;;;5112737;27;20019;-54
2022/04/26 07:10:22;;;;;;;22.38;14.98;;;15.30;55.90;;;;;;5130886;27;20106;-57
2022/04/26 07:12:48;;;;;;;18.75;15.05;;;15.30;56.00;;;;;;5111285;27;20034;-51
2022/04/26 07:15:15;;;;;;;19.45;14.07;;;15.30;56.60;;;;;;5132470;27;20023;-60
2022/04/26 07:17:41;;;;;;;18.75;14.43;;;15.30;56.00;;;;;;5129866;27;20405;-55
2022/04/26 07:20:09;;;;;;;20.92;15.23;;;15.20;56.10;;;;;;5111810;27;20080;-57
2022/04/26 07:22:36;;;;;;;21.08;17.58;;;15.20;56.30;;;;;;5130428;27;20054;-63
2022/04/26 07:25:06;;;;;;;29.10;18.17;;;15.10;56.30;;;;;;5111553;27;20088;-56
2022/04/26 07:27:32;;;;;;;28.48;19.52;;;15.10;56.70;;;;;;5129963;27;20027;-59
2022/04/26 07:30:00;;;;;;;27.10;19.20;;;15.10;56.50;;;;;;5130530;27;20050;-59
2022/04/26 07:35:12;;;;;;;26.75;19.15;;;14.70;57.30;;;;;;5135829;27;20042;-54
2022/04/26 07:37:41;;;;;;;31.58;19.35;;;14.70;57.30;;;;;;5116479;27;20114;-49
2022/04/26 07:40:09;;;;;;;33.75;19.92;;;14.70;57.50;;;;;;5112637;27;20027;-59
2022/04/26 07:42:35;;;;;;;27.50;19.60;;;14.70;57.40;;;;;;5129590;27;20563;-62
2022/04/26 07:45:20;;;;;;;30.05;19.42;;;14.70;57.30;;;;;;5130748;27;20468;-60
2022/04/26 07:47:46;;;;;;;25.80;19.35;;;14.70;57.40;;;;;;5132357;27;20118;-54
2022/04/26 07:50:11;;;;;;;27.63;20.15;;;14.70;57.30;;;;;;5131223;27;20471;-56
2022/04/26 07:52:37;;;;;;;28.33;19.65;;;14.60;57.60;;;;;;5111692;27;20464;-62
2022/04/26 07:55:04;;;;;;;26.80;19.73;;;14.60;57.70;;;;;;5132939;27;20053;-51
2022/04/26 07:57:30;;;;;;;22.90;17.58;;;14.70;57.80;;;;;;5135009;27;20027;-54
2022/04/26 07:59:56;;;;;;;23.48;18.23;;;14.90;57.30;;;;;;5115877;27;20323;-52
2022/04/26 08:02:24;;;;;;;25.63;18.77;;;15.00;57.10;;;;;;5134878;27;20034;-56
2022/04/26 08:04:50;;;;;;;28.90;18.95;;;15.10;56.70;;;;;;5132696;27;20031;-52
2022/04/26 08:07:16;;;;;;;30.55;18.92;;;15.00;56.90;;;;;;5116063;27;20042;-50
2022/04/26 08:09:43;;;;;;;29.20;18.70;;;14.90;56.90;;;;;;5133107;27;20084;-60
2022/04/26 08:12:08;;;;;;;23.10;18.17;;;15.00;56.90;;;;;;5129325;27;20039;-56
2022/04/26 08:14:34;;;;;;;29.33;19.20;;;15.10;57.40;;;;;;5111141;27;20031;-63
2022/04/26 08:17:19;;;;;;;24.23;19.00;;;15.10;56.80;;;;;;5131318;27;20052;-57
2022/04/26 08:19:44;;;;;;;23.05;18.77;;;14.90;56.80;;;;;;5128676;27;20030;-56
2022/04/26 08:22:10;;;;;;;23.35;18.40;;;14.90;57.00;;;;;;5110560;27;20039;-58
2022/04/26 08:27:24;;;;;;;24.95;18.27;;;15.00;57.00;;;;;;5130799;27;20115;-61
2022/04/26 08:29:54;;;;;;;24.45;18.38;;;15.00;57.00;;;;;;5128520;27;20027;-60
2022/04/26 08:32:22;;;;;;;21.70;18.08;;;15.00;56.80;;;;;;5111482;27;20083;-54
2022/04/26 08:34:48;;;;;;;24.38;18.17;;;15.10;56.90;;;;;;5130239;27;20023;-56
2022/04/26 08:37:14;;;;;;;23.13;18.48;;;15.10;56.70;;;;;;5110418;27;20080;-54
2022/04/26 08:39:40;;;;;;;23.02;18.80;;;15.20;56.80;;;;;;5109754;27;20027;-64
2022/04/26 08:42:07;;;;;;;26.30;18.92;;;15.20;56.50;;;;;;5130026;27;20091;-59
2022/04/26 08:44:34;;;;;;;26.30;18.67;;;15.20;56.50;;;;;;5128416;27;20114;-57
2022/04/26 08:52:45;;;;;;;25.10;18.52;;;15.30;56.10;;;;;;5131331;27;20030;-54
2022/04/26 08:55:11;;;;;;;24.08;18.77;;;15.30;56.80;;;;;;5133774;27;20094;-54
2022/04/26 08:57:37;;;;;;;24.50;18.58;;;15.30;56.30;;;;;;5133270;27;20015;-55
2022/04/26 09:00:05;;;;;;;25.05;19.10;;;15.30;56.20;;;;;;5133259;27;20042;-53
2022/04/26 09:02:31;;;;;;;23.17;19.35;;;15.40;56.10;;;;;;5133029;27;20019;-55
2022/04/26 09:05:13;;;;;;;27.63;20.30;;;15.40;56.00;;;;;;5132921;27;20032;-56
2022/04/26 09:07:40;;;;;;;31.10;20.98;;;15.40;56.00;;;;;;5133255;27;20022;-63
2022/04/26 09:10:09;;;;;;;28.50;21.73;;;15.30;56.10;;;;;;5134019;27;20023;-57
2022/04/26 09:13:04;;;;;;;34.83;21.85;;;15.20;56.60;;;;;;5133075;27;20111;-59
2022/04/26 09:15:38;;;;;;;25.40;19.73;;;15.20;56.80;;;;;;5133230;27;20015;-54
2022/04/26 09:18:21;;;;;;;34.97;21.48;;;15.20;56.80;;;;;;5114041;27;20023;-55
2022/04/26 09:20:50;;;;;;;29.05;22.85;;;15.30;57.40;;;;;;5114084;27;20029;-53
2022/04/26 09:23:26;;;;;;;27.50;21.17;;;15.40;56.60;;;;;;5133030;27;20383;-52
2022/04/26 09:26:08;;;;;;;26.65;22.00;;;15.40;56.30;;;;;;5113906;27;20027;-52
2022/04/26 09:28:37;;;;;;;26.85;22.33;;;15.30;56.20;;;;;;5114714;27;20015;-56
2022/04/26 09:31:15;;;;;;;39.05;23.10;;;15.30;56.20;;;;;;5132270;27;20015;-54
2022/04/26 09:33:46;;;;;;;28.35;22.85;;;15.30;56.70;;;;;;5114069;27;20543;-62
2022/04/26 09:36:13;;;;;;;33.58;24.02;;;15.30;56.30;;;;;;5114413;27;20392;-57
2022/04/26 09:38:48;;;;;;;28.70;21.95;;;15.30;56.50;;;;;;5097748;27;20034;-51
2022/04/26 09:41:15;;;;;;;27.73;22.30;;;15.30;56.30;;;;;;5133207;27;20023;-52
2022/04/26 09:43:41;;;;;;;30.40;22.10;;;15.30;56.30;;;;;;5132640;27;20038;-61
2022/04/26 09:46:08;;;;;;;33.00;22.60;;;15.20;56.30;;;;;;5097079;27;20027;-51
2022/04/26 09:48:38;;;;;;;30.25;22.95;;;15.30;56.50;;;;;;5113992;27;20019;-54
2022/04/26 09:51:06;;;;;;;29.20;21.63;;;15.40;56.50;;;;;;5113083;27;20027;-51
2022/04/26 09:53:32;;;;;;;28.45;22.02;;;15.50;56.20;;;;;;5114232;27;20388;-51
2022/04/26 09:56:00;;;;;;;29.60;21.58;;;15.60;55.90;;;;;;5131961;27;20068;-52
2022/04/26 09:58:27;;;;;;;26.27;21.75;;;15.60;55.60;;;;;;5114135;27;20054;-53
2022/04/26 10:00:55;;;;;;;27.33;19.70;;;15.50;55.30;;;;;;5113765;27;20471;-56
2022/04/26 10:03:31;;;;;;;28.95;21.55;;;15.50;55.20;;;;;;5113969;27;20118;-54
2022/04/26 10:06:01;;;;;;;31.65;22.10;;;15.50;55.50;;;;;;5131890;27;20030;-54
2022/04/26 10:08:32;;;;;;;27.48;20.70;;;15.60;55.40;;;;;;5132201;27;20023;-54
2022/04/26 10:11:00;;;;;;;25.88;20.52;;;15.60;55.40;;;;;;5113516;27;20132;-54
2022/04/26 10:13:32;;;;;;;27.83;20.42;;;15.70;54.90;;;;;;5113794;27;20023;-52
2022/04/26 10:16:21;;;;;;;35.25;25.33;;;15.70;54.40;;;;;;5112967;28;20027;-52
2022/04/26 10:18:48;;;;;;;25.45;19.27;;;15.70;54.60;;;;;;5131785;27;20019;-60
2022/04/26 10:21:23;;;;;;;23.23;18.45;;;15.80;54.30;;;;;;5113782;28;20023;-55
2022/04/26 10:23:52;;;;;;;19.63;15.45;;;15.80;53.90;;;;;;5113065;28;20523;-58
2022/04/26 10:26:23;;;;;;;19.58;16.00;;;15.70;53.30;;;;;;5113753;28;20041;-60
2022/04/26 10:29:00;;;;;;;20.77;14.80;;;15.80;53.00;;;;;;5131643;28;20105;-53
2022/04/26 10:31:37;;;;;;;17.92;15.07;;;15.90;52.80;;;;;;5132147;28;20098;-52
2022/04/26 10:34:29;;;;;;;18.02;12.85;;;16.00;52.20;;;;;;5131763;27;20177;-55
2022/04/26 10:37:06;;;;;;;23.13;17.08;;;16.10;51.80;;;;;;5131711;28;20026;-55
2022/04/26 10:39:36;;;;;;;17.83;15.25;;;16.20;52.10;;;;;;5132091;28;20030;-54
2022/04/26 10:42:22;;;;;;;18.75;14.45;;;16.20;51.70;;;;;;5131284;27;20126;-55
2022/04/26 10:44:48;;;;;;;18.85;16.48;;;16.10;51.70;;;;;;5131318;28;20038;-62
2022/04/26 10:47:18;;;;;;;18.23;13.98;;;16.10;51.80;;;;;;5113377;28;20023;-50
2022/04/26 10:49:48;;;;;;;16.92;14.82;;;16.00;51.80;;;;;;5132027;27;20034;-54
2022/04/26 10:52:22;;;;;;;21.60;16.35;;;16.00;52.20;;;;;;5113381;28;20020;-51
2022/04/26 10:57:21;;;;;;;21.63;16.35;;;16.10;52.50;;;;;;5131505;28;20039;-55
2022/04/26 11:00:02;;;;;;;23.00;18.27;;;16.20;52.70;;;;;;5131740;28;20020;-64
2022/04/26 11:02:48;;;;;;;21.10;17.70;;;16.20;53.20;;;;;;5112364;28;20471;-55
2022/04/26 11:05:18;;;;;;;19.20;17.17;;;16.40;53.40;;;;;;5130901;28;20019;-55
2022/04/26 11:07:47;;;;;;;19.02;15.55;;;16.60;53.20;;;;;;5131690;28;20023;-55
2022/04/26 11:10:23;;;;;;;18.88;16.48;;;17.00;51.90;;;;;;5131050;28;20023;-55
2022/04/26 11:12:52;;;;;;;15.18;13.52;;;17.20;50.80;;;;;;5112756;28;20110;-62
2022/04/26 11:15:20;;;;;;;16.90;14.65;;;17.40;49.80;;;;;;5131395;27;20106;-53
2022/04/26 11:17:49;;;;;;;21.15;15.65;;;17.70;49.90;;;;;;5112863;28;20045;-51
2022/04/26 11:20:25;;;;;;;16.52;12.88;;;18.00;49.10;;;;;;5131277;27;20023;-60
2022/04/26 11:22:58;;;;;;;19.00;14.70;;;18.20;47.90;;;;;;5130711;28;20023;-60
2022/04/26 11:28:14;;;;;;;16.42;14.65;;;18.60;46.70;;;;;;5130777;27;20030;-52
2022/04/26 11:30:44;;;;;;;22.10;17.98;;;18.50;46.70;;;;;;5099264;27;20015;-52
2022/04/26 11:33:12;;;;;;;22.42;17.42;;;18.40;47.40;;;;;;5134219;27;20178;-50
2022/04/26 11:35:40;;;;;;;22.08;16.67;;;18.30;47.50;;;;;;5116375;27;20047;-56
2022/04/26 11:38:14;;;;;;;20.70;15.70;;;18.40;47.80;;;;;;5134209;27;20058;-55
2022/04/26 11:40:49;;;;;;;;;;;18.50;46.70;;;;;;5116957;27;20440;-57
2022/04/26 11:43:19;;;;;;;21.42;15.85;;;18.30;46.90;;;;;;5134618;27;19911;-54
2022/04/26 11:45:48;;;;;;;17.20;15.07;;;18.10;47.60;;;;;;5098983;27;20107;-54
2022/04/26 11:48:15;;;;;;;22.13;15.55;;;18.00;48.00;;;;;;5134277;27;20050;-53
2022/04/26 11:50:43;;;;;;;17.50;13.07;;;18.10;48.00;;;;;;5134947;27;20024;-53
2022/04/26 11:53:10;;;;;;;16.50;13.93;;;18.20;47.20;;;;;;5115818;27;20118;-56
2022/04/26 11:55:56;;;;;;;11.18;9.00;;;18.30;46.60;;;;;;5134908;27;20482;-53
2022/04/26 11:58:35;;;;;;;9.77;7.57;;;18.10;45.70;;;;;;5116448;27;20031;-51
2022/04/26 12:01:16;;;;;;;7.13;5.82;;;17.90;44.30;;;;;;5134090;27;20046;-55
2022/04/26 12:03:51;;;;;;;11.02;9.63;;;17.70;44.10;;;;;;5116258;27;20091;-53
2022/04/26 12:06:20;;;;;;;16.27;11.18;;;17.60;45.40;;;;;;5115234;27;20464;-59
2022/04/26 12:08:54;;;;;;;16.00;11.57;;;17.70;46.20;;;;;;5134536;27;20015;-53
2022/04/26 12:11:21;;;;;;;13.80;9.80;;;17.80;46.80;;;;;;5134475;27;20083;-55
2022/04/26 12:14:07;;;;;;;10.68;8.52;;;18.10;46.10;;;;;;5134792;27;20015;-55
2022/04/26 12:16:55;;;;;;;13.30;9.00;;;18.50;44.70;;;;;;5115702;27;20042;-54
2022/04/26 12:19:34;;;;;;;13.13;8.77;;;18.80;44.20;;;;;;5134172;27;20023;-51
2022/04/26 12:22:01;;;;;;;10.55;7.63;;;19.10;43.20;;;;;;5133686;27;20027;-54
2022/04/26 12:24:44;;;;;;;10.15;8.18;;;19.20;43.20;;;;;;5134069;27;20100;-53
2022/04/26 12:27:22;;;;;;;9.93;8.40;;;19.30;42.00;;;;;;5115274;27;20023;-54
2022/04/26 12:29:51;;;;;;;10.00;7.55;;;19.10;42.50;;;;;;5115649;27;20038;-54
2022/04/26 12:32:20;;;;;;;10.05;8.00;;;19.00;42.80;;;;;;5114577;27;20034;-53
2022/04/26 12:34:57;;;;;;;11.35;7.72;;;18.90;43.30;;;;;;5133982;27;20020;-52
2022/04/26 12:37:29;;;;;;;12.82;7.88;;;18.80;43.20;;;;;;5115676;27;20039;-52
2022/04/26 12:40:00;;;;;;;9.63;7.78;;;18.70;43.20;;;;;;5132722;27;20019;-59
2022/04/26 12:42:34;;;;;;;17.13;8.05;;;18.70;43.70;;;;;;5114602;27;20051;-54
2022/04/26 12:45:12;;;;;;;11.40;7.80;;;18.40;43.50;;;;;;5132841;27;20031;-53
2022/04/26 12:50:28;;;;;;;13.35;7.40;;;18.40;44.20;;;;;;5118330;27;20199;-52
2022/04/26 12:52:56;;;;;;;13.48;8.55;;;18.30;44.60;;;;;;5133184;27;20015;-56
2022/04/26 12:55:52;;;;;;;15.07;8.75;;;18.50;44.60;;;;;;5097900;27;20550;-60
2022/04/26 12:58:33;;;;;;;16.23;8.68;;;18.30;44.00;;;;;;5111338;27;20042;-59
2022/04/26 13:00:59;;;;;;;18.23;8.43;;;18.30;44.60;;;;;;5132367;27;20030;-61
2022/04/26 13:03:28;;;;;;;9.90;7.20;;;18.20;44.40;;;;;;5132266;27;20019;-56
2022/04/26 13:06:09;;;;;;;10.00;7.50;;;18.20;44.30;;;;;;5132989;27;20030;-52
2022/04/26 13:08:35;;;;;;;12.13;7.20;;;18.10;44.20;;;;;;5133330;27;20019;-56
2022/04/26 13:11:02;;;;;;;11.18;6.70;;;18.00;44.00;;;;;;5113965;27;20106;-53
2022/04/26 13:13:28;;;;;;;9.32;7.05;;;18.00;44.50;;;;;;5132761;27;20064;-51
2022/04/26 13:15:54;;;;;;;10.68;7.32;;;18.00;44.60;;;;;;5133077;27;20027;-54
2022/04/26 13:18:20;;;;;;;8.70;6.30;;;18.10;44.30;;;;;;5132170;27;20027;-55
2022/04/26 13:20:47;;;;;;;14.07;7.40;;;18.10;44.30;;;;;;5132591;27;20015;-57
2022/04/26 13:23:14;;;;;;;14.93;7.25;;;18.10;44.40;;;;;;5132230;27;20421;-55
2022/04/26 13:25:41;;;;;;;13.73;9.57;;;18.10;43.80;;;;;;5132912;27;20088;-53
2022/04/26 13:28:07;;;;;;;8.85;6.65;;;17.90;44.20;;;;;;5113605;27;20110;-55
2022/04/26 13:30:34;;;;;;;10.95;7.07;;;17.90;44.40;;;;;;5132594;27;20019;-51
2022/04/26 13:33:01;;;;;;;9.68;6.28;;;18.00;44.30;;;;;;5131988;27;20015;-60
2022/04/26 13:35:27;;;;;;;10.30;6.13;;;18.20;44.50;;;;;;5114377;27;20027;-53
2022/04/26 13:37:55;;;;;;;8.68;6.38;;;17.90;44.70;;;;;;5113823;27;20175;-53
2022/04/26 13:40:24;;;;;;;9.07;6.97;;;17.70;44.60;;;;;;5132102;27;20026;-53
2022/04/26 13:42:51;;;;;;;9.70;5.85;;;17.80;44.50;;;;;;5132153;27;20050;-53
2022/04/26 13:45:18;;;;;;;12.98;7.60;;;18.00;44.40;;;;;;5112908;27;20043;-53
2022/04/26 13:47:45;;;;;;;15.32;7.65;;;18.20;44.10;;;;;;5096717;27;20030;-55
2022/04/26 13:50:12;;;;;;;15.45;9.27;;;18.40;44.10;;;;;;5131350;27;20094;-54
2022/04/26 13:52:40;;;;;;;8.90;7.93;;;18.50;44.30;;;;;;5132147;27;20131;-55
2022/04/26 13:55:07;;;;;;;12.13;8.05;;;18.60;44.50;;;;;;5113192;27;20019;-54
2022/04/26 13:57:33;;;;;;;8.73;7.10;;;18.60;45.20;;;;;;5132297;27;20070;-52
2022/04/26 13:59:59;;;;;;;11.10;8.07;;;18.80;44.10;;;;;;5113254;27;20150;-52
2022/04/26 14:02:25;;;;;;;13.10;7.90;;;18.70;44.20;;;;;;5131152;27;20091;-54
2022/04/26 14:04:51;;;;;;;13.48;8.52;;;18.80;44.50;;;;;;5131709;27;20030;-52
2022/04/26 14:07:17;;;;;;;14.25;9.13;;;19.00;44.90;;;;;;5131523;27;20023;-53
2022/04/26 14:09:44;;;;;;;13.18;9.55;;;19.10;44.20;;;;;;5113691;27;20019;-49
2022/04/26 14:12:11;;;;;;;12.55;8.70;;;19.30;44.20;;;;;;5131264;27;20102;-53
2022/04/26 14:22:52;;;;;;;15.40;9.95;;;19.30;44.20;;;;;;5129636;27;20257;-58
2022/04/26 14:25:18;;;;;;;16.00;9.32;;;19.40;44.20;;;;;;5129032;27;20019;-53
2022/04/26 14:27:49;;;;;;;17.90;8.60;;;19.30;44.00;;;;;;5130587;27;20035;-50
2022/04/26 14:30:16;;;;;;;10.38;8.20;;;19.20;44.20;;;;;;5130321;28;20015;-52
2022/04/26 14:32:44;;;;;;;12.70;8.63;;;19.00;44.70;;;;;;5112325;28;20050;-50
2022/04/26 14:35:11;;;;;;;14.55;9.00;;;19.00;44.90;;;;;;5112186;28;20472;-50
2022/04/26 14:37:37;;;;;;;9.65;8.60;;;19.00;44.90;;;;;;5131600;28;20030;-56
2022/04/26 14:40:04;;;;;;;12.30;8.60;;;19.00;44.90;;;;;;5112849;28;20038;-62
2022/04/26 14:42:31;;;;;;;11.05;9.35;;;18.80;45.00;;;;;;5129955;27;20042;-54
2022/04/26 14:44:57;;;;;;;16.20;9.45;;;18.80;45.30;;;;;;5131847;27;20027;-53
2022/04/26 14:47:26;;;;;;;10.63;8.70;;;18.70;45.40;;;;;;5112394;28;20527;-54
2022/04/26 14:49:54;;;;;;;11.85;8.90;;;18.60;45.50;;;;;;5095552;28;20031;-53
2022/04/26 14:52:21;;;;;;;9.88;8.25;;;18.60;45.80;;;;;;5130405;27;20026;-56
2022/04/26 14:54:50;;;;;;;14.82;9.73;;;18.60;46.00;;;;;;5131101;27;20092;-52
2022/04/26 14:57:21;;;;;;;11.00;9.30;;;18.80;46.00;;;;;;5112274;28;20050;-52
2022/04/26 14:59:47;;;;;;;16.00;9.52;;;19.00;45.70;;;;;;5112609;28;20055;-54
2022/04/26 15:02:17;;;;;;;13.98;9.35;;;19.10;45.20;;;;;;5111815;28;20038;-53
2022/04/26 15:04:44;;;;;;;12.23;9.52;;;19.10;45.40;;;;;;5133200;27;20035;-52
2022/04/26 15:07:11;;;;;;;16.83;10.40;;;19.20;45.20;;;;;;5115713;27;20023;-52
2022/04/26 15:09:42;;;;;;;16.48;11.85;;;19.10;44.90;;;;;;5117041;27;20066;-55
2022/04/26 15:17:40;;;;;;;11.60;9.73;;;19.00;45.50;;;;;;5135142;27;20116;-55
2022/04/26 15:20:07;;;;;;;18.00;9.52;;;18.90;45.80;;;;;;5134836;27;20027;-62
2022/04/26 15:22:36;;;;;;;12.80;9.98;;;18.80;46.00;;;;;;5134896;27;20031;-52
2022/04/26 15:25:07;;;;;;;18.17;11.45;;;18.70;46.30;;;;;;5135393;27;20023;-55
2022/04/26 15:27:38;;;;;;;12.85;10.70;;;18.60;46.70;;;;;;5135140;27;20050;-56
2022/04/26 15:30:08;;;;;;;15.77;10.43;;;18.50;46.90;;;;;;5135481;27;20015;-56
2022/04/26 15:32:34;;;;;;;14.52;11.10;;;18.50;47.10;;;;;;5116574;27;20045;-52
2022/04/26 15:35:00;;;;;;;13.07;9.98;;;18.30;47.30;;;;;;5135588;27;20023;-55
2022/04/26 15:37:27;;;;;;;16.55;11.15;;;18.20;47.70;;;;;;5115746;27;20272;-54
2022/04/26 15:40:12;;;;;;;14.48;11.02;;;18.10;47.90;;;;;;5132961;27;20162;-53
2022/04/26 15:42:38;;;;;;;17.17;11.90;;;18.00;48.20;;;;;;5134106;27;20574;-54
2022/04/26 15:45:04;;;;;;;17.95;11.90;;;18.00;48.30;;;;;;5114998;27;20118;-53
2022/04/26 15:47:30;;;;;;;13.85;11.45;;;18.00;48.50;;;;;;5135006;27;20019;-50
2022/04/26 15:49:56;;;;;;;14.90;11.30;;;17.90;48.60;;;;;;5115083;27;20023;-58
2022/04/26 15:52:23;;;;;;;14.73;11.75;;;17.90;48.80;;;;;;5098925;27;20122;-48
2022/04/26 15:54:48;;;;;;;18.38;12.13;;;17.90;49.00;;;;;;5115991;27;20027;-53
2022/04/26 15:57:14;;;;;;;16.60;12.25;;;17.90;49.10;;;;;;5134081;27;20024;-51
2022/04/26 15:59:41;;;;;;;16.40;11.85;;;17.90;49.00;;;;;;5116121;27;20023;-52
2022/04/26 16:02:07;;;;;;;17.98;12.20;;;18.00;49.00;;;;;;5115430;27;20395;-49
2022/04/26 16:04:34;;;;;;;16.52;11.55;;;18.10;48.80;;;;;;5134503;27;20023;-50
2022/04/26 16:07:00;;;;;;;15.30;12.13;;;18.00;48.90;;;;;;5133628;27;20050;-56
2022/04/26 16:20:32;;;;;;;15.70;12.43;;;18.10;49.00;;;;;;5134229;27;19914;-52
2022/04/26 16:23:00;;;;;;;15.43;11.82;;;18.10;48.80;;;;;;5134007;27;20035;-59
2022/04/26 16:25:26;;;;;;;15.88;10.85;;;18.10;48.90;;;;;;5115228;27;20023;-53
2022/04/26 16:27:52;;;;;;;16.35;12.38;;;18.10;48.80;;;;;;5133683;27;20114;-52
2022/04/26 16:30:19;;;;;;;14.50;13.00;;;18.00;48.80;;;;;;5114570;27;20098;-53
2022/04/26 16:32:45;;;;;;;15.10;12.60;;;18.00;48.90;;;;;;5115277;27;20075;-55
2022/04/26 16:35:11;;;;;;;16.05;12.40;;;18.00;48.90;;;;;;5133511;27;20062;-53
2022/04/26 16:37:38;;;;;;;16.50;11.75;;;18.10;48.70;;;;;;5133534;27;20032;-53
2022/04/26 16:40:04;;;;;;;16.13;12.02;;;18.00;48.90;;;;;;5114280;27;20034;-55
2022/04/26 16:42:30;;;;;;;14.07;12.13;;;18.00;49.00;;;;;;5114619;27;20038;-54
2022/04/26 16:44:57;;;;;;;12.45;10.85;;;18.00;49.00;;;;;;5133659;27;20035;-53
2022/04/26 16:47:23;;;;;;;22.90;14.45;;;17.90;49.70;;;;;;5133318;27;20147;-53
2022/04/26 16:49:49;;;;;;;14.23;11.93;;;17.90;49.10;;;;;;5115792;27;20122;-55
2022/04/26 16:52:15;;;;;;;16.83;12.43;;;17.80;49.30;;;;;;5133163;27;20019;-56
2022/04/26 16:54:41;;;;;;;16.08;13.15;;;17.70;49.50;;;;;;5115336;27;20471;-57
2022/04/26 16:57:07;;;;;;;16.13;12.20;;;17.70;49.70;;;;;;5132972;27;20040;-52
2022/04/26 16:59:32;;;;;;;17.33;13.80;;;17.70;49.70;;;;;;5131494;27;20023;-59